createdAt,value
2018-08-16T00:00:21.432Z,6.15
2018-08-16T00:02:50.412Z,5.55
2018-08-16T00:05:19.383Z,7.25
2018-08-16T00:07:48.305Z,5.03
2018-08-16T00:10:18.500Z,5.12
2018-08-16T00:12:48.619Z,5.15
2018-08-16T00:15:18.663Z,5.37
2018-08-16T00:17:47.631Z,4.60
2018-08-16T00:20:16.654Z,5.10
2018-08-16T00:22:45.990Z,5.60
2018-08-16T00:25:15.600Z,5.28
2018-08-16T00:27:44.774Z,5.05
2018-08-16T00:30:15.149Z,5.00
2018-08-16T00:32:44.557Z,4.70
2018-08-16T00:35:13.662Z,5.22
2018-08-16T00:37:42.664Z,5.15
2018-08-16T00:40:13.886Z,5.45
2018-08-16T00:42:42.902Z,5.72
2018-08-16T00:45:12.177Z,5.30
2018-08-16T00:47:41.166Z,6.05
2018-08-16T00:50:11.942Z,4.97
2018-08-16T00:52:40.918Z,5.55
2018-08-16T00:55:11.006Z,5.78
2018-08-16T00:57:39.902Z,4.70
2018-08-16T01:00:11.947Z,5.35
2018-08-16T01:02:40.886Z,5.00
2018-08-16T01:05:09.917Z,5.35
2018-08-16T01:07:38.914Z,5.50
2018-08-16T01:10:09.618Z,5.22
2018-08-16T01:12:38.560Z,5.37
2018-08-16T01:15:09.352Z,5.90
2018-08-16T01:17:38.302Z,5.50
2018-08-16T01:20:07.392Z,4.95
2018-08-16T01:22:36.322Z,5.80
2018-08-16T01:25:06.043Z,5.55
2018-08-16T01:27:35.161Z,5.90
2018-08-16T01:30:04.779Z,5.80
2018-08-16T01:32:33.710Z,5.87
2018-08-16T01:35:02.682Z,5.50
2018-08-16T01:37:31.665Z,6.22
2018-08-16T01:40:00.561Z,5.75
2018-08-16T01:42:29.477Z,5.83
2018-08-16T01:44:58.430Z,5.42
2018-08-16T01:47:28.164Z,5.45
2018-08-16T01:49:57.066Z,5.65
2018-08-16T01:52:25.992Z,5.62
2018-08-16T01:54:54.894Z,5.40
2018-08-16T01:57:23.811Z,6.10
2018-08-16T01:59:52.682Z,5.60
2018-08-16T02:02:21.645Z,5.45
2018-08-16T02:04:50.563Z,5.90
2018-08-16T02:07:19.499Z,5.95
2018-08-16T02:09:48.417Z,5.65
2018-08-16T02:12:17.338Z,6.45
2018-08-16T02:14:46.245Z,6.17
2018-08-16T02:17:15.194Z,6.87
2018-08-16T02:19:44.103Z,5.80
2018-08-16T02:22:13.012Z,5.45
2018-08-16T02:24:41.937Z,5.45
2018-08-16T02:27:10.850Z,5.97
2018-08-16T02:29:39.758Z,7.15
2018-08-16T02:32:08.675Z,6.17
2018-08-16T02:34:37.660Z,5.55
2018-08-16T02:37:06.895Z,5.95
2018-08-16T02:39:35.820Z,7.15
2018-08-16T02:42:04.756Z,5.70
2018-08-16T02:44:33.646Z,6.50
2018-08-16T02:47:02.544Z,5.90
2018-08-16T02:49:31.409Z,6.10
2018-08-16T02:52:00.366Z,5.78
2018-08-16T02:54:29.282Z,6.00
2018-08-16T02:56:58.393Z,6.10
2018-08-16T02:59:27.304Z,6.15
2018-08-16T03:01:56.225Z,5.60
2018-08-16T03:04:25.149Z,5.92
2018-08-16T03:06:54.034Z,5.80
2018-08-16T03:09:22.917Z,6.03
2018-08-16T03:11:51.845Z,5.85
2018-08-16T03:14:20.751Z,6.28
2018-08-16T03:16:49.669Z,6.20
2018-08-16T03:19:18.597Z,6.20
2018-08-16T03:21:47.718Z,6.28
2018-08-16T03:24:16.686Z,7.15
2018-08-16T03:26:45.831Z,7.35
2018-08-16T03:29:14.810Z,5.47
2018-08-16T03:31:43.716Z,6.10
2018-08-16T03:34:12.649Z,5.75
2018-08-16T03:36:41.506Z,5.83
2018-08-16T03:39:10.468Z,5.75
2018-08-16T03:41:39.374Z,5.90
2018-08-16T03:44:08.790Z,6.83
2018-08-16T03:46:37.686Z,6.30
2018-08-16T03:56:05.774Z,5.55
2018-08-16T03:58:34.678Z,5.60
2018-08-16T04:01:03.586Z,5.53
2018-08-16T04:03:32.673Z,6.10
2018-08-16T04:06:01.565Z,6.95
2018-08-16T04:08:30.454Z,5.15
2018-08-16T04:10:59.350Z,5.80
2018-08-16T04:13:28.227Z,6.40
2018-08-16T04:15:57.134Z,5.92
2018-08-16T04:18:26.041Z,5.47
2018-08-16T04:20:54.909Z,5.37
2018-08-16T04:23:23.830Z,5.67
2018-08-16T04:25:52.865Z,5.53
2018-08-16T04:28:21.851Z,6.12
2018-08-16T04:30:50.774Z,6.50
2018-08-16T04:33:19.738Z,6.40
2018-08-16T04:35:48.626Z,6.65
2018-08-16T04:38:17.554Z,6.25
2018-08-16T04:40:46.575Z,6.22
2018-08-16T04:43:15.465Z,7.25
2018-08-16T04:45:44.436Z,6.05
2018-08-16T04:48:13.447Z,6.28
2018-08-16T04:50:42.349Z,5.90
2018-08-16T04:53:11.302Z,6.78
2018-08-16T04:55:40.229Z,6.15
2018-08-16T04:58:09.182Z,5.50
2018-08-16T05:00:38.081Z,6.67
2018-08-16T05:03:07.062Z,6.60
2018-08-16T05:05:36.046Z,6.60
2018-08-16T05:08:04.986Z,6.62
2018-08-16T05:10:33.861Z,6.28
2018-08-16T05:13:02.750Z,6.15
2018-08-16T05:15:31.613Z,5.70
2018-08-16T05:18:00.561Z,6.45
2018-08-16T05:20:29.473Z,7.50
2018-08-16T05:22:58.406Z,5.92
2018-08-16T05:25:27.324Z,7.20
2018-08-16T05:28:02.694Z,6.90
2018-08-16T05:30:31.773Z,6.92
2018-08-16T05:33:00.742Z,5.47
2018-08-16T05:35:29.644Z,6.70
2018-08-16T05:37:58.682Z,5.97
2018-08-16T05:40:27.583Z,5.55
2018-08-16T05:42:56.521Z,6.25
2018-08-16T05:45:25.470Z,6.58
2018-08-16T05:47:58.318Z,7.45
2018-08-16T05:50:27.250Z,7.20
2018-08-16T05:52:56.155Z,6.20
2018-08-16T05:55:25.071Z,6.78
2018-08-16T05:57:53.990Z,7.03
2018-08-16T06:00:22.911Z,6.45
2018-08-16T06:02:51.837Z,6.60
2018-08-16T06:05:20.773Z,6.83
2018-08-16T06:07:49.750Z,5.45
2018-08-16T06:10:18.688Z,6.72
2018-08-16T06:12:47.597Z,6.45
2018-08-16T06:15:16.573Z,5.70
2018-08-16T06:17:45.659Z,6.22
2018-08-16T06:20:14.621Z,5.60
2018-08-16T06:22:43.534Z,6.55
2018-08-16T06:25:13.738Z,6.12
2018-08-16T06:27:43.246Z,6.35
2018-08-16T06:30:15.007Z,5.60
2018-08-16T06:32:44.639Z,6.85
2018-08-16T06:35:13.563Z,6.72
2018-08-16T06:37:42.498Z,6.62
2018-08-16T06:40:14.850Z,6.30
2018-08-16T06:42:44.246Z,6.85
2018-08-16T06:45:13.225Z,6.60
2018-08-16T06:47:42.159Z,7.05
2018-08-16T06:50:11.063Z,7.08
2018-08-16T06:52:40.036Z,6.80
2018-08-16T06:55:10.002Z,6.03
2018-08-16T06:57:38.930Z,5.97
2018-08-16T07:00:08.290Z,6.90
2018-08-16T07:02:37.506Z,6.90
2018-08-16T07:05:06.790Z,6.30
2018-08-16T07:07:35.927Z,6.33
2018-08-16T07:10:06.881Z,6.25
2018-08-16T07:12:35.929Z,6.85
2018-08-16T07:15:07.662Z,6.47
2018-08-16T07:17:36.663Z,6.00
2018-08-16T07:20:05.991Z,6.15
2018-08-16T07:22:34.933Z,6.35
2018-08-16T07:25:04.331Z,6.90
2018-08-16T07:27:33.265Z,5.67
2018-08-16T07:30:02.376Z,5.25
2018-08-16T07:32:31.238Z,5.97
2018-08-16T07:35:00.127Z,5.15
2018-08-16T07:37:29.045Z,5.65
2018-08-16T07:39:57.986Z,5.05
2018-08-16T07:42:26.866Z,4.97
2018-08-16T07:44:55.765Z,5.95
2018-08-16T07:47:25.017Z,5.00
2018-08-16T07:49:54.022Z,5.00
2018-08-16T07:52:22.942Z,5.78
2018-08-16T07:54:51.901Z,5.08
2018-08-16T07:57:20.822Z,6.03
2018-08-16T07:59:49.766Z,4.25
2018-08-16T08:02:18.718Z,3.92
2018-08-16T08:04:47.668Z,4.20
2018-08-16T08:07:16.607Z,3.93
2018-08-16T08:09:45.907Z,3.63
2018-08-16T08:12:14.891Z,4.17
2018-08-16T08:14:43.836Z,4.00
2018-08-16T08:17:12.812Z,3.85
2018-08-16T08:19:41.803Z,3.67
2018-08-16T08:22:10.801Z,3.40
2018-08-16T08:24:39.760Z,4.37
2018-08-16T08:27:08.668Z,3.87
2018-08-16T08:29:37.589Z,4.03
2018-08-16T08:32:06.739Z,4.47
2018-08-16T08:34:35.669Z,3.50
2018-08-16T08:37:16.162Z,3.60
2018-08-16T08:39:45.094Z,3.93
2018-08-16T08:42:14.007Z,4.60
2018-08-16T08:44:43.109Z,4.13
2018-08-16T08:47:12.130Z,3.17
2018-08-16T08:49:41.066Z,3.13
2018-08-16T08:52:09.973Z,3.00
2018-08-16T08:54:51.365Z,3.23
2018-08-16T08:57:32.371Z,3.60
2018-08-16T09:00:01.349Z,3.33
2018-08-16T09:02:30.297Z,3.40
2018-08-16T09:04:59.250Z,2.93
2018-08-16T09:07:28.178Z,2.87
2018-08-16T09:11:15.793Z,3.13
2018-08-16T09:14:01.514Z,3.20
2018-08-16T09:16:38.737Z,2.77
2018-08-16T09:19:08.549Z,3.03
2018-08-16T09:21:37.778Z,3.60
2018-08-16T09:24:06.772Z,2.83
2018-08-16T09:26:38.709Z,3.70
2018-08-16T09:29:17.857Z,2.40
2018-08-16T09:31:58.098Z,2.77
2018-08-16T09:34:27.224Z,3.40
2018-08-16T09:36:56.118Z,2.43
2018-08-16T09:39:25.102Z,2.70
2018-08-16T09:41:53.925Z,2.40
2018-08-16T09:44:22.838Z,2.20
2018-08-16T09:47:05.103Z,2.30
2018-08-16T09:49:36.352Z,2.17
2018-08-16T09:52:06.150Z,2.60
2018-08-16T09:54:35.158Z,2.50
2018-08-16T09:57:05.448Z,2.27
2018-08-16T09:59:34.434Z,1.80
2018-08-16T10:02:04.077Z,2.23
2018-08-16T10:04:32.961Z,2.60
2018-08-16T10:07:01.891Z,2.67
2018-08-16T10:09:31.698Z,2.50
2018-08-16T10:12:01.854Z,3.00
2018-08-16T10:14:30.925Z,2.83
2018-08-16T10:16:59.999Z,3.47
2018-08-16T10:19:29.392Z,2.20
2018-08-16T10:21:58.361Z,2.20
2018-08-16T10:24:27.256Z,2.30
2018-08-16T10:26:56.216Z,2.40
2018-08-16T10:29:25.099Z,2.97
2018-08-16T10:31:53.937Z,2.93
2018-08-16T10:34:22.877Z,2.73
2018-08-16T10:36:51.799Z,2.70
2018-08-16T10:39:20.878Z,2.97
2018-08-16T10:41:49.862Z,3.30
2018-08-16T10:44:18.766Z,2.87
2018-08-16T10:46:47.758Z,3.17
2018-08-16T10:49:16.672Z,3.03
2018-08-16T10:51:45.687Z,2.87
2018-08-16T10:54:14.697Z,2.60
2018-08-16T10:56:43.683Z,2.70
2018-08-16T10:59:12.574Z,2.23
2018-08-16T11:01:41.539Z,3.50
2018-08-16T11:04:10.454Z,2.47
2018-08-16T11:06:39.374Z,3.00
2018-08-16T11:09:09.582Z,3.17
2018-08-16T11:11:38.903Z,3.63
2018-08-16T11:14:07.829Z,2.77
2018-08-16T11:16:36.722Z,2.77
2018-08-16T11:19:05.806Z,2.40
2018-08-16T11:21:34.721Z,3.00
2018-08-16T11:24:03.632Z,2.90
2018-08-16T11:26:32.547Z,3.30
2018-08-16T11:29:01.442Z,2.40
2018-08-16T11:31:30.660Z,2.60
2018-08-16T11:33:59.567Z,4.33
2018-08-16T11:36:28.501Z,2.60
2018-08-16T11:38:57.403Z,3.13
2018-08-16T11:41:26.297Z,2.50
2018-08-16T11:43:55.203Z,3.00
2018-08-16T11:46:24.093Z,2.90
2018-08-16T11:48:53.333Z,2.80
2018-08-16T11:51:22.247Z,2.70
2018-08-16T11:53:51.151Z,2.63
2018-08-16T11:56:20.205Z,2.87
2018-08-16T11:58:49.128Z,4.33
2018-08-16T12:01:18.025Z,3.50
2018-08-16T12:03:47.133Z,2.53
2018-08-16T12:06:16.212Z,2.03
2018-08-16T12:08:45.314Z,2.67
2018-08-16T12:11:14.228Z,2.33
2018-08-16T12:13:43.122Z,2.10
2018-08-16T12:16:12.076Z,2.60
2018-08-16T12:18:40.955Z,2.60
2018-08-16T12:21:09.897Z,2.53
2018-08-16T12:23:38.745Z,2.57
2018-08-16T12:26:08.020Z,2.50
2018-08-16T12:28:36.935Z,2.60
2018-08-16T12:31:05.866Z,2.10
2018-08-16T12:33:34.743Z,2.50
2018-08-16T12:36:03.719Z,2.10
2018-08-16T12:38:32.606Z,2.40
2018-08-16T12:41:01.755Z,2.30
2018-08-16T12:43:33.258Z,2.20
2018-08-16T12:46:02.199Z,2.50
2018-08-16T12:48:31.062Z,2.87
2018-08-16T12:51:00.027Z,2.30
2018-08-16T12:53:29.255Z,2.00
2018-08-16T12:55:58.394Z,2.40
2018-08-16T12:58:27.347Z,2.77
2018-08-16T13:00:56.326Z,1.97
2018-08-16T13:03:25.254Z,2.83
2018-08-16T13:05:54.192Z,2.90
2018-08-16T13:08:23.101Z,1.93
2018-08-16T13:10:52.023Z,2.23
2018-08-16T13:13:20.921Z,2.10
2018-08-16T13:15:49.951Z,2.53
2018-08-16T13:18:18.903Z,2.67
2018-08-16T13:20:47.823Z,2.23
2018-08-16T13:23:16.718Z,2.50
2018-08-16T13:25:45.694Z,3.00
2018-08-16T13:28:15.283Z,2.40
2018-08-16T13:30:44.280Z,2.90
2018-08-16T13:33:13.242Z,1.97
2018-08-16T13:35:42.148Z,2.40
2018-08-16T13:38:11.147Z,2.30
2018-08-16T13:40:40.183Z,2.67
2018-08-16T13:43:09.206Z,2.10
2018-08-16T13:45:38.094Z,1.93
2018-08-16T13:48:07.011Z,2.20
2018-08-16T13:50:35.922Z,2.17
2018-08-16T13:53:04.799Z,2.53
2018-08-16T13:55:33.736Z,2.10
2018-08-16T13:58:02.642Z,2.03
2018-08-16T14:00:31.550Z,2.37
2018-08-16T14:03:00.594Z,3.10
2018-08-16T14:05:29.550Z,2.83
2018-08-16T14:07:58.455Z,2.17
2018-08-16T14:10:27.341Z,2.27
2018-08-16T14:12:56.223Z,1.93
2018-08-16T14:15:25.113Z,1.90
2018-08-16T14:17:54.070Z,2.00
2018-08-16T14:20:23.082Z,2.30
2018-08-16T14:22:52.058Z,2.00
2018-08-16T14:25:20.954Z,2.53
2018-08-16T14:27:49.899Z,1.93
2018-08-16T14:30:18.829Z,1.90
2018-08-16T14:32:47.796Z,2.20
2018-08-16T14:35:16.739Z,2.60
2018-08-16T14:37:45.679Z,2.30
2018-08-16T14:40:14.816Z,2.70
2018-08-16T14:42:43.786Z,1.80
2018-08-16T14:45:12.682Z,1.60
2018-08-16T14:47:41.579Z,1.70
2018-08-16T14:50:10.475Z,1.90
2018-08-16T14:52:39.376Z,1.60
2018-08-16T14:55:08.265Z,1.80
2018-08-16T14:57:37.206Z,2.30
2018-08-16T15:00:07.231Z,1.90
2018-08-16T15:02:36.118Z,2.37
2018-08-16T15:05:05.678Z,2.10
2018-08-16T15:07:34.562Z,1.80
2018-08-16T15:10:04.402Z,1.70
2018-08-16T15:12:33.414Z,2.13
2018-08-16T15:15:02.373Z,1.77
2018-08-16T15:17:31.270Z,1.60
2018-08-16T15:20:00.212Z,1.90
2018-08-16T15:22:29.142Z,1.70
2018-08-16T15:24:58.031Z,1.70
2018-08-16T15:27:26.960Z,1.77
2018-08-16T15:29:55.831Z,1.73
2018-08-16T15:32:24.913Z,2.27
2018-08-16T15:34:53.670Z,2.00
2018-08-16T15:37:22.631Z,1.93
2018-08-16T15:39:51.498Z,2.20
2018-08-16T15:42:20.478Z,1.80
2018-08-16T15:44:49.367Z,1.90
2018-08-16T15:47:18.255Z,1.70
2018-08-16T15:49:47.177Z,1.77
2018-08-16T15:52:16.154Z,1.83
2018-08-16T15:54:45.070Z,1.60
2018-08-16T15:57:14.102Z,1.47
2018-08-16T15:59:42.982Z,1.70
2018-08-16T16:02:11.906Z,1.50
2018-08-16T16:04:40.800Z,1.47
2018-08-16T16:07:09.713Z,2.20
2018-08-16T16:09:38.582Z,1.90
2018-08-16T16:12:07.554Z,1.50
2018-08-16T16:14:36.435Z,1.90
2018-08-16T16:17:05.555Z,1.80
2018-08-16T16:19:34.618Z,1.60
2018-08-16T16:22:03.669Z,1.70
2018-08-16T16:24:32.857Z,1.80
2018-08-16T16:27:02.504Z,1.87
2018-08-16T16:29:31.611Z,1.80
2018-08-16T16:32:00.843Z,1.67
2018-08-16T16:34:29.826Z,1.90
2018-08-16T16:37:05.390Z,1.53
2018-08-16T16:39:39.593Z,2.00
2018-08-16T16:42:13.340Z,1.80
2018-08-16T16:44:43.842Z,1.80
2018-08-16T16:47:12.870Z,2.00
2018-08-16T16:49:41.928Z,1.90
2018-08-16T16:52:10.838Z,2.03
2018-08-16T16:54:39.813Z,1.70
2018-08-16T16:57:08.873Z,1.73
2018-08-16T16:59:37.880Z,2.20
2018-08-16T17:02:07.134Z,1.80
2018-08-16T17:04:36.023Z,1.47
2018-08-16T17:07:04.970Z,1.97
2018-08-16T17:09:33.896Z,1.80
2018-08-16T17:12:09.408Z,1.63
2018-08-16T17:14:38.786Z,1.80
2018-08-16T17:17:08.022Z,2.00
2018-08-16T17:19:36.926Z,1.80
2018-08-16T17:22:06.274Z,1.90
2018-08-16T17:24:35.198Z,1.80
2018-08-16T17:27:04.133Z,1.90
2018-08-16T17:29:33.090Z,2.07
2018-08-16T17:32:02.146Z,1.90
2018-08-16T17:34:31.049Z,1.77
2018-08-16T17:37:00.002Z,1.70
2018-08-16T17:39:28.978Z,2.00
2018-08-16T17:41:57.913Z,2.10
2018-08-16T17:44:26.814Z,2.63
2018-08-16T17:46:55.833Z,2.83
2018-08-16T17:49:24.762Z,1.80
2018-08-16T17:51:53.950Z,1.93
2018-08-16T17:54:22.834Z,2.07
2018-08-16T17:56:51.723Z,2.10
2018-08-16T17:59:20.649Z,1.67
2018-08-16T18:01:49.671Z,1.80
2018-08-16T18:04:18.631Z,2.00
2018-08-16T18:06:47.531Z,2.07
2018-08-16T18:09:16.465Z,2.70
2018-08-16T18:11:45.374Z,2.13
2018-08-16T18:14:14.323Z,2.83
2018-08-16T18:16:43.245Z,1.90
2018-08-16T18:19:12.138Z,2.00
2018-08-16T18:21:41.271Z,2.30
2018-08-16T18:24:10.354Z,2.43
2018-08-16T18:26:39.374Z,2.10
2018-08-16T18:29:08.344Z,2.20
2018-08-16T18:31:37.337Z,2.77
2018-08-16T18:34:06.722Z,2.23
2018-08-16T18:36:35.646Z,2.50
2018-08-16T18:39:06.794Z,2.07
2018-08-16T18:41:35.740Z,2.50
2018-08-16T18:44:04.836Z,2.63
2018-08-16T18:46:34.760Z,2.00
2018-08-16T18:49:03.646Z,2.53
2018-08-16T18:51:32.858Z,2.70
2018-08-16T18:54:01.774Z,2.33
2018-08-16T18:56:31.345Z,2.50
2018-08-16T18:59:00.226Z,2.33
2018-08-16T19:01:29.131Z,2.50
2018-08-16T19:03:58.010Z,2.60
2018-08-16T19:06:26.911Z,2.93
2018-08-16T19:08:55.822Z,2.70
2018-08-16T19:11:24.757Z,2.73
2018-08-16T19:13:53.684Z,3.20
2018-08-16T19:16:22.705Z,2.83
2018-08-16T19:18:58.454Z,2.60
2018-08-16T19:21:27.348Z,2.70
2018-08-16T19:23:56.278Z,2.57
2018-08-16T19:26:25.207Z,2.73
2018-08-16T19:28:54.167Z,3.13
2018-08-16T19:31:23.237Z,3.17
2018-08-16T19:33:52.158Z,2.80
2018-08-16T19:36:21.150Z,2.90
2018-08-16T19:38:50.170Z,2.73
2018-08-16T19:41:19.255Z,3.20
2018-08-16T19:43:48.199Z,2.97
2018-08-16T19:46:17.851Z,2.60
2018-08-16T19:48:46.962Z,3.20
2018-08-16T19:51:16.131Z,2.70
2018-08-16T19:53:45.146Z,2.87
2018-08-16T19:56:14.183Z,2.50
2018-08-16T19:58:43.189Z,2.50
2018-08-16T20:01:12.187Z,3.07
2018-08-16T20:03:40.981Z,3.70
2018-08-16T20:06:09.918Z,2.87
2018-08-16T20:08:38.825Z,2.80
2018-08-16T20:11:07.881Z,2.70
2018-08-16T20:13:36.812Z,2.50
2018-08-16T20:16:05.833Z,2.77
2018-08-16T20:18:34.762Z,2.50
2018-08-16T20:21:03.690Z,3.17
2018-08-16T20:23:32.607Z,2.50
2018-08-16T20:26:01.501Z,2.70
2018-08-16T20:28:30.430Z,2.40
2018-08-16T20:30:59.350Z,2.87
2018-08-16T20:33:28.315Z,2.70
2018-08-16T20:35:57.426Z,2.70
2018-08-16T20:38:26.326Z,2.70
2018-08-16T20:40:55.353Z,2.93
2018-08-16T20:43:24.325Z,3.20
2018-08-16T20:45:53.230Z,3.10
2018-08-16T20:48:22.222Z,3.10
2018-08-16T20:50:51.131Z,3.20
2018-08-16T20:53:20.026Z,2.50
2018-08-16T20:55:48.946Z,2.83
2018-08-16T20:58:18.030Z,2.90
2018-08-16T21:00:46.962Z,3.57
2018-08-16T21:03:15.866Z,2.80
2018-08-16T21:05:44.787Z,2.87
2018-08-16T21:08:13.796Z,3.17
2018-08-16T21:10:42.768Z,3.27
2018-08-16T21:13:11.731Z,2.77
2018-08-16T21:15:40.643Z,3.00
2018-08-16T21:18:09.606Z,3.10
2018-08-16T21:20:38.526Z,3.27
2018-08-16T21:23:07.951Z,2.80
2018-08-16T21:25:36.871Z,3.07
2018-08-16T21:28:05.983Z,3.10
2018-08-16T21:30:34.901Z,3.27
2018-08-16T21:33:03.818Z,2.83
2018-08-16T21:35:32.756Z,2.80
2018-08-16T21:38:01.654Z,3.67
2018-08-16T21:40:30.584Z,3.00
2018-08-16T21:42:59.549Z,3.50
2018-08-16T21:45:28.438Z,2.87
2018-08-16T21:47:57.437Z,2.83
2018-08-16T21:50:26.339Z,3.75
2018-08-16T21:52:55.253Z,3.17
2018-08-16T21:55:24.158Z,3.52
2018-08-16T21:57:53.075Z,3.15
2018-08-16T22:00:56.118Z,3.55
2018-08-16T22:03:27.491Z,3.17
2018-08-16T22:06:06.871Z,3.10
2018-08-16T22:08:47.646Z,3.02
2018-08-16T22:11:16.594Z,2.72
2018-08-16T22:13:45.510Z,3.50
2018-08-16T22:16:14.482Z,3.27
2018-08-16T22:18:43.418Z,3.27
2018-08-16T22:21:12.390Z,3.37
2018-08-16T22:23:41.310Z,3.30
2018-08-16T22:26:10.289Z,3.50
2018-08-16T22:28:39.122Z,3.62
2018-08-16T22:31:08.048Z,3.30
2018-08-16T22:33:36.932Z,3.40
2018-08-16T22:36:05.874Z,3.50
2018-08-16T22:38:34.818Z,3.40
2018-08-16T22:41:03.769Z,3.58
2018-08-16T22:43:32.682Z,3.60
2018-08-16T22:46:01.643Z,4.40
2018-08-16T22:48:30.681Z,4.03
2018-08-16T22:50:59.583Z,4.03
2018-08-16T22:53:28.476Z,4.10
2018-08-16T22:55:57.426Z,4.03
2018-08-16T22:58:26.355Z,3.55
2018-08-16T23:00:55.431Z,3.75
2018-08-16T23:03:24.362Z,3.30
2018-08-16T23:05:53.278Z,3.67
2018-08-16T23:08:22.153Z,3.08
2018-08-16T23:10:51.105Z,4.12
2018-08-16T23:13:20.031Z,3.80
2018-08-16T23:15:48.938Z,4.10
2018-08-16T23:18:17.845Z,3.58
2018-08-16T23:20:46.751Z,3.62
2018-08-16T23:23:22.481Z,3.70
2018-08-16T23:25:51.386Z,3.77
2018-08-16T23:28:20.302Z,3.75
2018-08-16T23:30:49.224Z,3.52
2018-08-16T23:33:18.150Z,4.00
2018-08-16T23:35:47.165Z,4.15
2018-08-16T23:38:16.101Z,3.70
2018-08-16T23:40:45.056Z,3.47
2018-08-16T23:43:13.949Z,3.85
2018-08-16T23:45:42.881Z,4.00
2018-08-16T23:48:23.109Z,3.60
2018-08-16T23:50:52.010Z,3.92
2018-08-16T23:53:20.892Z,3.27
2018-08-16T23:55:49.838Z,4.00
2018-08-16T23:58:18.746Z,3.52
